Terminal Aerodrome Forecast
Issued by NWS

Home | Current Version | Previous Version | Text Only | Print | Product List | Glossary Off
Versions: 1 2 3 4 5 6 7 8 9 10 11 12 13 14 15 16 17 18 19

000
FTUS44 KTSA 010500
TAFXNA
TAF
KXNA 010529Z 0106/0206 00000KT 5SM BR BKN015
     FM010800 00000KT 1/2SM FG SCT005
     FM011400 18004KT P6SM BKN015
     FM011800 06005KT P6SM SCT025 BKN050
     FM012200 07004KT P6SM BKN250
     FM020000 VRB03KT P6SM SCT250=

USA.gov is the U.S. government's official web portal to all federal, state and local government web resources and services.